Pohnpei, Pohnpei International Airport (PTPN)

NamePohnpei International Airport
CityPohnpei
CountryMicronesia
ICAOPTPN
IATAPNI
Altitude3 m
CoordinatesGoogle Map
Live Air TrafficLiveATC.net
METARPTPN 180250Z 04016KT 12SM -RA BKN017TCU OVC130 26/25 A2980 RMK TCU ALQDS
2019-02-18 02:50:00 Wind: North-Northeast (40°) 8.23 m/s - Visibility: 19312.08 m - Weather: Light Rain - Temperature: 26 °C - Dew point: 25 °C - Humidity: 94.2% - Pressure: 1009.14 hPa
Statistics

The table below shows the detailed information of all flights to/from Pohnpei, Pohnpei International Airport (PTPN).